Terminal Aerodrome Forecast
Issued by NWS Mobile, AL

Home | Current Version | Previous Version | Text Only | Print | Product List | Glossary On
Versions: 1 2 3 4 5 6 7 8 9 10 11 12 13
000
FTUS44 KMOB 212320
TAFMOB
TAF
KMOB 212320Z 2200/2224 12010KT P6SM FEW024 SCT045 SCT250
     FM221300 11010KT P6SM VCTS SCT030CB BKN050
     FM221600 13012KT 5SM TSRA BKN030CB OVC080=

USA.gov is the U.S. government's official web portal to all federal, state and local government web resources and services.